Time;durP1;ratioP1;P1;durP2;ratioP2;P2;SDS_P1;SDS_P2;PMS_P1;PMS_P2;Temp;Humidity;BMP_temperature;BMP_pressure;BME280_temperature;BME280_humidity;BME280_pressure;Samples;Min_cycle;Max_cycle;Signal;HPM_P1;HPM_P2
2023/01/16 00:01:26;;;;;;;5.78;3.70;;;3.90;99.90;;;;;;5047483;28;20069;-40
2023/01/16 00:03:52;;;;;;;7.75;3.95;;;4.00;99.90;;;;;;5039763;28;20072;-40
2023/01/16 00:06:19;;;;;;;6.38;3.40;;;4.00;99.90;;;;;;5034434;28;20534;-39
2023/01/16 00:08:48;;;;;;;4.25;2.90;;;4.00;99.90;;;;;;5044978;28;20041;-40
2023/01/16 00:11:14;;;;;;;9.32;4.15;;;4.10;99.90;;;;;;5040495;28;20065;-39
2023/01/16 00:13:40;;;;;;;5.32;3.17;;;4.10;99.90;;;;;;5048086;28;20083;-39
2023/01/16 00:16:06;;;;;;;6.63;3.38;;;4.10;99.90;;;;;;5021760;28;20050;-43
2023/01/16 00:18:32;;;;;;;6.53;3.53;;;4.20;99.90;;;;;;5029826;28;20045;-41
2023/01/16 00:20:58;;;;;;;10.50;3.72;;;4.20;99.90;;;;;;5046508;28;20041;-40
2023/01/16 00:23:24;;;;;;;7.18;3.30;;;4.20;99.90;;;;;;5031108;28;20099;-40
2023/01/16 00:25:50;;;;;;;7.22;3.60;;;4.20;99.90;;;;;;5042271;28;20051;-41
2023/01/16 00:28:16;;;;;;;8.55;3.70;;;4.20;99.90;;;;;;5039524;28;20095;-39
2023/01/16 00:30:42;;;;;;;7.93;3.45;;;4.20;99.90;;;;;;5045960;28;20068;-40
2023/01/16 00:33:08;;;;;;;5.10;3.42;;;4.20;99.90;;;;;;5047091;28;20037;-40
2023/01/16 00:35:35;;;;;;;5.47;3.20;;;4.20;99.90;;;;;;5044387;28;20025;-39
2023/01/16 00:38:01;;;;;;;6.50;3.00;;;4.30;99.90;;;;;;5033577;28;20116;-40
2023/01/16 00:40:28;;;;;;;5.75;3.35;;;4.30;99.90;;;;;;5037233;28;20089;-41
2023/01/16 00:42:54;;;;;;;6.72;2.80;;;4.30;99.90;;;;;;5047184;28;20048;-40
2023/01/16 00:45:20;;;;;;;8.13;3.10;;;4.30;99.90;;;;;;5046221;28;20048;-40
2023/01/16 00:47:46;;;;;;;7.18;2.80;;;4.30;99.90;;;;;;5046911;28;20041;-39
2023/01/16 00:50:12;;;;;;;5.75;2.65;;;4.30;99.90;;;;;;5038792;28;20044;-40
2023/01/16 00:52:53;;;;;;;5.53;3.30;;;4.30;99.90;;;;;;5041162;28;20037;-40
2023/01/16 00:55:20;;;;;;;7.50;3.03;;;4.40;99.90;;;;;;5049661;28;20036;-39
2023/01/16 00:57:46;;;;;;;7.22;2.72;;;4.30;99.90;;;;;;5050781;28;20091;-41
2023/01/16 01:00:13;;;;;;;6.78;3.53;;;4.30;99.90;;;;;;5043983;28;20045;-39
2023/01/16 01:02:39;;;;;;;5.60;3.33;;;4.30;99.90;;;;;;5047544;28;20025;-41
2023/01/16 01:05:06;;;;;;;8.43;3.05;;;4.30;99.90;;;;;;5049853;28;20043;-39
2023/01/16 01:07:32;;;;;;;7.65;3.05;;;4.40;99.90;;;;;;5034104;28;20038;-40
2023/01/16 01:09:58;;;;;;;6.50;3.30;;;4.40;99.90;;;;;;5037505;28;20048;-41
2023/01/16 01:12:24;;;;;;;6.53;2.70;;;4.40;99.90;;;;;;5047151;28;20509;-39
2023/01/16 01:14:49;;;;;;;8.95;3.75;;;4.40;99.90;;;;;;5049025;28;20052;-40
2023/01/16 01:17:16;;;;;;;7.93;3.35;;;4.40;99.90;;;;;;5048037;28;20541;-40
2023/01/16 01:20:08;;;;;;;7.63;2.85;;;4.40;99.90;;;;;;5036850;28;20041;-40
2023/01/16 01:22:46;;;;;;;4.88;2.75;;;4.40;99.90;;;;;;5023840;28;20045;-40
2023/01/16 01:25:12;;;;;;;4.70;2.60;;;4.50;99.90;;;;;;5041175;28;20155;-42
2023/01/16 01:27:38;;;;;;;10.07;2.70;;;4.40;99.90;;;;;;5045284;28;20090;-40
2023/01/16 01:30:05;;;;;;;8.48;2.63;;;4.50;99.90;;;;;;5046125;28;20037;-41
2023/01/16 01:32:31;;;;;;;7.05;3.05;;;4.50;99.90;;;;;;5054020;28;20073;-41
2023/01/16 01:34:58;;;;;;;6.60;3.00;;;4.50;99.90;;;;;;5047222;28;20041;-41
2023/01/16 01:37:24;;;;;;;5.50;2.40;;;4.50;99.90;;;;;;5045123;28;20116;-42
2023/01/16 01:39:50;;;;;;;8.07;2.33;;;4.60;99.90;;;;;;5055600;28;20045;-40
2023/01/16 01:45:12;;;;;;;5.25;2.75;;;4.60;99.90;;;;;;5050563;28;20056;-41
2023/01/16 01:48:14;;;;;;;8.60;2.70;;;4.60;99.90;;;;;;5040851;28;20041;-41
2023/01/16 01:50:53;;;;;;;8.45;2.67;;;4.60;99.90;;;;;;5026033;28;20562;-41
2023/01/16 01:53:41;;;;;;;8.25;2.47;;;4.60;99.90;;;;;;5036288;28;20040;-40
2023/01/16 01:56:28;;;;;;;7.05;2.42;;;4.70;99.90;;;;;;5039105;28;20371;-43
2023/01/16 01:59:00;;;;;;;8.13;2.40;;;4.70;99.90;;;;;;5050706;28;20406;-41
2023/01/16 02:01:28;;;;;;;5.05;2.45;;;4.70;99.90;;;;;;5043493;28;20097;-41
2023/01/16 02:04:00;;;;;;;6.72;2.63;;;4.70;99.90;;;;;;5051963;28;20041;-43
2023/01/16 02:06:33;;;;;;;3.38;2.15;;;4.70;99.90;;;;;;5030952;28;20055;-42
2023/01/16 02:08:59;;;;;;;6.38;2.50;;;4.70;99.90;;;;;;5037464;28;20445;-40
2023/01/16 02:11:43;;;;;;;5.57;2.50;;;4.70;99.90;;;;;;5047768;28;20025;-41
2023/01/16 02:14:13;;;;;;;4.72;2.60;;;4.70;99.90;;;;;;5044896;28;20417;-41
2023/01/16 02:19:48;;;;;;;4.13;2.65;;;4.70;99.90;;;;;;5041382;28;20067;-40
2023/01/16 02:22:39;;;;;;;5.07;2.60;;;4.70;99.90;;;;;;5049697;28;20041;-41
2023/01/16 02:25:30;;;;;;;8.35;2.83;;;4.70;99.90;;;;;;5042664;28;20041;-41
2023/01/16 02:28:11;;;;;;;5.50;2.70;;;4.70;99.90;;;;;;5036941;28;20065;-41
2023/01/16 02:30:49;;;;;;;6.40;3.15;;;4.70;99.90;;;;;;5028516;28;20116;-41
2023/01/16 02:33:36;;;;;;;6.55;2.88;;;4.70;99.90;;;;;;5044332;28;20036;-40
2023/01/16 02:36:23;;;;;;;6.88;2.90;;;4.60;99.90;;;;;;5037883;28;20040;-41
2023/01/16 02:39:14;;;;;;;6.30;3.60;;;4.60;99.90;;;;;;5036500;28;20059;-41
2023/01/16 02:41:51;;;;;;;4.28;2.70;;;4.60;99.90;;;;;;5041843;28;20041;-40
2023/01/16 02:44:45;;;;;;;6.57;2.67;;;4.60;99.90;;;;;;5043172;28;20049;-40
2023/01/16 02:47:38;;;;;;;7.18;3.10;;;4.60;99.90;;;;;;5044777;28;20064;-41
2023/01/16 02:50:22;;;;;;;5.00;3.10;;;4.50;99.90;;;;;;5048425;28;20040;-41
2023/01/16 02:52:56;;;;;;;8.20;3.28;;;4.50;99.90;;;;;;5042120;28;20047;-42
2023/01/16 02:55:41;;;;;;;4.40;2.70;;;4.40;99.90;;;;;;5041607;28;20132;-41
2023/01/16 02:58:16;;;;;;;4.90;2.97;;;4.30;99.90;;;;;;5047284;28;20067;-41
2023/01/16 03:00:55;;;;;;;5.20;3.28;;;4.30;99.90;;;;;;5034878;28;20546;-41
2023/01/16 03:03:41;;;;;;;4.65;3.10;;;4.20;99.90;;;;;;5051838;28;20037;-42
2023/01/16 03:06:37;;;;;;;5.80;3.47;;;4.20;99.90;;;;;;5042424;28;20049;-41
2023/01/16 03:09:05;;;;;;;8.18;3.78;;;4.10;99.90;;;;;;5036561;28;20045;-41
2023/01/16 03:11:42;;;;;;;9.02;3.97;;;4.10;99.90;;;;;;5040692;28;20112;-40
2023/01/16 03:14:36;;;;;;;5.43;3.72;;;4.00;99.90;;;;;;5023724;28;20034;-40
2023/01/16 03:17:39;;;;;;;6.95;3.47;;;4.10;99.90;;;;;;5046664;28;20033;-40
2023/01/16 03:20:22;;;;;;;6.68;3.63;;;4.20;99.90;;;;;;5035807;28;20045;-42
2023/01/16 03:23:11;;;;;;;6.55;4.07;;;4.20;99.90;;;;;;5035413;28;20052;-43
2023/01/16 03:26:00;;;;;;;5.93;3.95;;;4.20;99.90;;;;;;5039029;28;20066;-40
2023/01/16 03:29:02;;;;;;;7.95;4.22;;;4.30;99.90;;;;;;5044712;28;20045;-39
2023/01/16 03:31:42;;;;;;;5.95;4.70;;;4.30;99.90;;;;;;5041580;28;20474;-39
2023/01/16 03:34:26;;;;;;;9.65;6.03;;;4.30;99.90;;;;;;5028336;28;20116;-39
2023/01/16 03:36:54;;;;;;;12.25;6.88;;;4.40;99.90;;;;;;5031287;28;20394;-38
2023/01/16 03:39:24;;;;;;;7.53;4.82;;;4.40;99.90;;;;;;5030378;28;20037;-39
2023/01/16 03:41:54;;;;;;;8.75;5.00;;;4.40;99.90;;;;;;5041458;28;20045;-38
2023/01/16 03:44:38;;;;;;;7.55;5.00;;;4.40;99.90;;;;;;5037424;28;20041;-39
2023/01/16 03:47:11;;;;;;;;;;;4.40;99.90;;;;;;5036029;28;20459;-38
2023/01/16 03:49:42;;;;;;;11.65;6.30;;;4.40;99.90;;;;;;5042534;28;20354;-38
2023/01/16 03:52:12;;;;;;;11.50;7.03;;;4.40;99.90;;;;;;5025195;28;20042;-38
2023/01/16 03:55:12;;;;;;;12.02;8.75;;;4.40;99.90;;;;;;5046338;28;20398;-42
2023/01/16 03:57:46;;;;;;;13.85;9.60;;;4.40;99.90;;;;;;5027770;28;20401;-41
2023/01/16 04:00:12;;;;;;;;;;;4.40;99.90;;;;;;5020791;28;20130;-38
2023/01/16 04:02:51;;;;;;;18.15;10.50;;;4.40;99.90;;;;;;5030145;28;19964;-39
2023/01/16 04:05:31;;;;;;;15.27;10.18;;;4.40;99.90;;;;;;5049070;28;20030;-38
2023/01/16 04:08:28;;;;;;;14.88;9.05;;;4.40;99.90;;;;;;5047152;28;20090;-39
2023/01/16 04:10:55;;;;;;;16.73;11.00;;;4.40;99.90;;;;;;5045542;28;20063;-38
2023/01/16 04:13:28;;;;;;;21.52;12.75;;;4.50;99.90;;;;;;5044924;28;20071;-38
2023/01/16 04:15:59;;;;;;;17.70;11.32;;;4.50;99.90;;;;;;5051945;28;20041;-38
2023/01/16 04:18:30;;;;;;;18.23;13.68;;;4.50;99.90;;;;;;5024318;28;20041;-38
2023/01/16 04:20:56;;;;;;;16.67;11.10;;;4.50;99.90;;;;;;5032041;28;20049;-38
2023/01/16 04:23:22;;;;;;;18.30;11.55;;;4.50;99.90;;;;;;5032489;28;20172;-38
2023/01/16 04:25:48;;;;;;;19.70;12.35;;;4.50;99.90;;;;;;5044300;28;20119;-39
2023/01/16 04:28:14;;;;;;;15.90;11.52;;;4.50;99.90;;;;;;5042318;28;20527;-38
2023/01/16 04:30:40;;;;;;;18.50;12.68;;;4.50;99.90;;;;;;5039035;28;20033;-38
2023/01/16 04:33:06;;;;;;;17.95;12.07;;;4.40;99.90;;;;;;5046217;28;20166;-38
2023/01/16 04:35:33;;;;;;;20.50;12.55;;;4.40;99.90;;;;;;5047947;28;20040;-38
2023/01/16 04:37:59;;;;;;;21.52;13.57;;;4.40;99.90;;;;;;5047673;28;20146;-38
2023/01/16 04:40:25;;;;;;;19.83;12.85;;;4.40;99.90;;;;;;5038873;28;20028;-38
2023/01/16 04:42:51;;;;;;;19.00;13.13;;;4.40;99.90;;;;;;5046720;28;20044;-38
2023/01/16 04:45:17;;;;;;;22.17;12.60;;;4.40;99.90;;;;;;5037008;28;20033;-38
2023/01/16 04:47:51;;;;;;;20.38;11.80;;;4.40;99.90;;;;;;5035573;28;20057;-38
2023/01/16 04:50:17;;;;;;;18.25;12.73;;;4.30;99.90;;;;;;5037769;28;20130;-38
2023/01/16 04:52:44;;;;;;;21.02;12.50;;;4.30;99.90;;;;;;5045116;28;20108;-38
2023/01/16 04:55:10;;;;;;;19.77;11.82;;;4.20;99.90;;;;;;5042083;28;20041;-42
2023/01/16 04:57:36;;;;;;;18.00;11.13;;;4.20;99.90;;;;;;5049387;28;20414;-42
2023/01/16 05:00:04;;;;;;;14.35;10.43;;;4.20;99.90;;;;;;5045333;28;20441;-42
2023/01/16 05:02:30;;;;;;;14.80;9.93;;;4.10;99.90;;;;;;5049994;28;20099;-41
2023/01/16 05:04:55;;;;;;;18.23;11.30;;;4.10;99.90;;;;;;5025671;28;20653;-42
2023/01/16 05:07:21;;;;;;;15.52;9.93;;;4.00;99.90;;;;;;5038634;28;20034;-41
2023/01/16 05:09:47;;;;;;;18.63;10.65;;;3.90;99.90;;;;;;5043623;28;20042;-41
2023/01/16 05:12:13;;;;;;;16.33;10.52;;;3.90;99.90;;;;;;5049169;28;20068;-42
2023/01/16 05:14:39;;;;;;;16.30;10.35;;;3.80;99.90;;;;;;5038781;28;20033;-41
2023/01/16 05:17:05;;;;;;;16.70;9.55;;;3.80;99.90;;;;;;5043070;28;20033;-41
2023/01/16 05:19:30;;;;;;;16.33;9.10;;;3.70;99.90;;;;;;5048270;28;20360;-42
2023/01/16 05:21:56;;;;;;;16.70;8.70;;;3.60;99.90;;;;;;5036433;28;20410;-41
2023/01/16 05:24:22;;;;;;;16.23;9.57;;;3.60;99.90;;;;;;5038122;28;20049;-42
2023/01/16 05:26:48;;;;;;;12.85;8.90;;;3.50;99.90;;;;;;5048172;28;20044;-41
2023/01/16 05:29:14;;;;;;;15.77;8.80;;;3.50;99.90;;;;;;5036908;28;20044;-42
2023/01/16 05:31:40;;;;;;;16.60;9.73;;;3.40;99.90;;;;;;5027648;28;20045;-43
2023/01/16 05:34:06;;;;;;;16.33;9.00;;;3.40;99.90;;;;;;5045686;28;20041;-41
2023/01/16 05:36:31;;;;;;;13.05;8.98;;;3.30;99.90;;;;;;5050653;28;20425;-42
2023/01/16 05:38:57;;;;;;;16.02;8.40;;;3.30;99.90;;;;;;5045594;28;20080;-40
2023/01/16 05:41:23;;;;;;;18.52;8.80;;;3.30;99.90;;;;;;5033399;28;20403;-41
2023/01/16 05:43:49;;;;;;;16.15;8.13;;;3.30;99.90;;;;;;5041035;28;20118;-40
2023/01/16 05:46:15;;;;;;;16.73;7.85;;;3.30;99.90;;;;;;5032025;28;20414;-40
2023/01/16 05:48:41;;;;;;;11.63;7.05;;;3.30;99.90;;;;;;5045503;28;20109;-40
2023/01/16 05:51:07;;;;;;;14.75;7.65;;;3.30;99.90;;;;;;5040572;28;20045;-40
2023/01/16 05:53:32;;;;;;;14.02;7.75;;;3.30;99.90;;;;;;5040682;28;20116;-41
2023/01/16 05:56:00;;;;;;;15.15;7.60;;;3.30;99.90;;;;;;5035307;28;20497;-41
2023/01/16 05:58:26;;;;;;;12.60;7.18;;;3.30;99.90;;;;;;5022263;28;20047;-40
2023/01/16 06:00:52;;;;;;;12.10;6.95;;;3.30;99.90;;;;;;5050126;28;20401;-41
2023/01/16 06:03:18;;;;;;;14.65;6.90;;;3.40;99.90;;;;;;5038357;28;20041;-40
2023/01/16 06:05:44;;;;;;;13.65;7.95;;;3.40;99.90;;;;;;5049557;28;20047;-40
2023/01/16 06:08:11;;;;;;;16.52;7.03;;;3.40;99.90;;;;;;5040224;28;20552;-40
2023/01/16 06:10:37;;;;;;;13.75;7.18;;;3.40;99.90;;;;;;5038901;28;20393;-41
2023/01/16 06:13:03;;;;;;;14.73;6.97;;;3.40;99.90;;;;;;5024218;28;20125;-41
2023/01/16 06:15:29;;;;;;;13.75;7.35;;;3.30;99.90;;;;;;5035946;28;20070;-40
2023/01/16 06:17:55;;;;;;;10.75;6.53;;;3.40;99.90;;;;;;5047978;28;20470;-41
2023/01/16 06:20:21;;;;;;;14.90;7.10;;;3.30;99.90;;;;;;5036377;28;20065;-40
2023/01/16 06:22:47;;;;;;;14.02;6.22;;;3.30;99.90;;;;;;5045191;28;20483;-40
2023/01/16 06:25:14;;;;;;;9.68;6.60;;;3.30;99.90;;;;;;5041686;28;20037;-40
2023/01/16 06:27:39;;;;;;;17.23;7.05;;;3.30;99.90;;;;;;5045292;28;20056;-40
2023/01/16 06:30:07;;;;;;;9.18;6.30;;;3.30;99.90;;;;;;5032869;28;20494;-40
2023/01/16 06:32:33;;;;;;;16.13;7.10;;;3.20;99.90;;;;;;5038583;28;20497;-41
2023/01/16 06:34:59;;;;;;;11.77;7.10;;;3.20;99.90;;;;;;5042096;28;20045;-39
2023/01/16 06:37:25;;;;;;;10.68;6.53;;;3.20;99.90;;;;;;5038819;28;20112;-40
2023/01/16 06:39:50;;;;;;;9.70;6.20;;;3.20;99.90;;;;;;5029863;28;20187;-40
2023/01/16 06:42:19;;;;;;;15.25;7.25;;;3.20;99.90;;;;;;5041782;28;20045;-37
2023/01/16 06:56:34;;;;;;;12.65;5.68;;;3.00;99.90;;;;;;5016013;28;20102;-38
2023/01/16 06:59:19;;;;;;;13.63;5.88;;;3.00;99.90;;;;;;5016356;28;20403;-38
2023/01/16 07:02:03;;;;;;;12.45;6.32;;;3.00;99.90;;;;;;5035157;28;20048;-38
2023/01/16 07:04:30;;;;;;;11.50;5.88;;;3.00;99.90;;;;;;5034753;28;20046;-38
2023/01/16 07:07:00;;;;;;;12.70;6.18;;;3.00;99.90;;;;;;5033284;28;20490;-38
2023/01/16 07:09:29;;;;;;;10.38;6.13;;;3.00;99.90;;;;;;5036477;28;20049;-38
2023/01/16 07:12:05;;;;;;;10.45;6.40;;;3.00;99.90;;;;;;5036685;28;20402;-40
2023/01/16 07:22:45;;;;;;;8.80;5.93;;;3.00;99.90;;;;;;5031050;28;20042;-40
2023/01/16 07:25:17;;;;;;;10.27;6.68;;;3.00;99.90;;;;;;5046865;28;20048;-40
2023/01/16 07:27:51;;;;;;;12.07;7.00;;;3.00;99.90;;;;;;5038016;28;20087;-40
2023/01/16 07:30:43;;;;;;;14.07;6.45;;;3.00;99.90;;;;;;5035776;28;20042;-40
2023/01/16 07:33:10;;;;;;;15.52;7.20;;;3.10;99.90;;;;;;5032862;28;20498;-41
2023/01/16 07:35:36;;;;;;;11.88;7.85;;;3.10;99.90;;;;;;5038799;28;20120;-40
2023/01/16 07:38:03;;;;;;;17.80;7.78;;;3.10;99.90;;;;;;5027695;28;20068;-41
2023/01/16 07:40:29;;;;;;;13.90;7.68;;;3.10;99.90;;;;;;5046341;28;20080;-40
2023/01/16 07:42:55;;;;;;;11.13;7.70;;;3.10;99.90;;;;;;5029507;28;20072;-41
2023/01/16 07:45:20;;;;;;;10.93;7.60;;;3.20;99.90;;;;;;5032012;28;20038;-41
2023/01/16 07:47:47;;;;;;;15.02;8.13;;;3.20;99.90;;;;;;5021223;28;20391;-41
2023/01/16 07:50:13;;;;;;;15.30;8.18;;;3.20;99.90;;;;;;5043454;28;20045;-40
2023/01/16 07:52:39;;;;;;;15.27;8.32;;;3.20;99.90;;;;;;5045969;28;20033;-40
2023/01/16 07:55:05;;;;;;;13.98;8.13;;;3.20;99.90;;;;;;5037043;28;20430;-40
2023/01/16 07:57:31;;;;;;;12.15;8.07;;;3.30;99.90;;;;;;5025989;28;20045;-41
2023/01/16 07:59:56;;;;;;;11.38;7.60;;;3.30;99.90;;;;;;5017507;28;20041;-40
2023/01/16 08:02:22;;;;;;;11.38;7.75;;;3.30;99.90;;;;;;5043203;28;20379;-40
2023/01/16 08:04:48;;;;;;;13.57;7.90;;;3.30;99.90;;;;;;5044383;28;20113;-39
2023/01/16 08:07:14;;;;;;;14.18;7.53;;;3.40;99.90;;;;;;5032369;28;20033;-41
2023/01/16 08:09:40;;;;;;;12.90;7.80;;;3.40;99.90;;;;;;5034533;28;20037;-40
2023/01/16 08:12:06;;;;;;;13.88;7.60;;;3.40;99.90;;;;;;5032660;28;20045;-41
2023/01/16 08:14:42;;;;;;;10.57;6.88;;;3.40;99.90;;;;;;5029053;28;20036;-40
2023/01/16 08:17:08;;;;;;;12.02;7.22;;;3.50;99.90;;;;;;5014802;28;20037;-40
2023/01/16 08:19:34;;;;;;;12.65;6.90;;;3.50;99.90;;;;;;5032543;28;20071;-41
2023/01/16 08:22:02;;;;;;;14.18;7.10;;;3.50;99.90;;;;;;5028234;28;20111;-40
2023/01/16 08:24:28;;;;;;;10.32;6.72;;;3.60;99.90;;;;;;5030982;28;20103;-40
2023/01/16 08:26:55;;;;;;;12.98;6.90;;;3.60;99.90;;;;;;5035011;28;20069;-40
2023/01/16 08:29:21;;;;;;;10.93;5.90;;;3.60;99.90;;;;;;5036049;28;20038;-40
2023/01/16 08:31:51;;;;;;;10.00;5.28;;;3.70;99.90;;;;;;5031852;28;20033;-41
2023/01/16 08:34:32;;;;;;;8.02;6.07;;;3.70;99.90;;;;;;5018856;28;20078;-40
2023/01/16 08:36:58;;;;;;;8.63;5.53;;;3.70;99.90;;;;;;5031216;28;20152;-40
2023/01/16 08:39:25;;;;;;;7.35;5.07;;;3.80;99.90;;;;;;5036036;28;20037;-40
2023/01/16 08:52:58;;;;;;;10.07;4.88;;;3.80;99.90;;;;;;5033528;28;20410;-41
2023/01/16 08:55:24;;;;;;;7.53;5.05;;;3.90;99.90;;;;;;5037028;28;20041;-40
2023/01/16 08:58:28;;;;;;;8.23;5.22;;;3.90;99.90;;;;;;5035386;28;20044;-41
2023/01/16 09:00:55;;;;;;;5.35;4.30;;;3.90;99.90;;;;;;5011755;28;20065;-40
2023/01/16 09:03:21;;;;;;;8.32;4.75;;;3.90;99.90;;;;;;5029306;28;20044;-40
2023/01/16 09:05:48;;;;;;;7.43;4.75;;;3.90;99.90;;;;;;5037820;28;20458;-40
2023/01/16 09:08:16;;;;;;;6.43;4.00;;;3.90;99.90;;;;;;5034164;28;20034;-40
2023/01/16 09:13:48;;;;;;;6.15;4.80;;;3.90;99.90;;;;;;5036384;28;20037;-41
2023/01/16 09:16:24;;;;;;;6.38;4.75;;;3.90;99.90;;;;;;5018186;28;20042;-41
2023/01/16 09:18:52;;;;;;;8.80;4.80;;;3.90;99.90;;;;;;5030694;28;20503;-40
2023/01/16 09:21:19;;;;;;;6.45;4.50;;;3.90;99.90;;;;;;5014118;28;20080;-40
2023/01/16 09:23:46;;;;;;;5.07;3.88;;;3.90;99.90;;;;;;5031636;28;20041;-41
2023/01/16 09:26:13;;;;;;;9.52;4.40;;;3.90;99.90;;;;;;5037737;28;20052;-40
2023/01/16 09:28:39;;;;;;;9.60;4.50;;;4.00;99.90;;;;;;5035997;28;20036;-40
2023/01/16 09:31:06;;;;;;;5.47;3.70;;;4.00;99.90;;;;;;5035773;28;20479;-40
2023/01/16 09:33:31;;;;;;;6.07;3.40;;;4.00;99.90;;;;;;5038975;28;20488;-41
2023/01/16 09:35:59;;;;;;;7.50;3.47;;;4.00;99.90;;;;;;5026724;28;20034;-41
2023/01/16 09:38:27;;;;;;;7.18;3.42;;;4.00;99.90;;;;;;5030637;28;20506;-41
2023/01/16 09:40:58;;;;;;;4.72;3.05;;;4.10;99.90;;;;;;5027962;28;20536;-38
2023/01/16 09:43:39;;;;;;;5.22;2.97;;;4.10;99.90;;;;;;5034154;28;20037;-38
2023/01/16 09:46:24;;;;;;;2.75;2.50;;;4.10;99.90;;;;;;5009810;28;20041;-38
2023/01/16 09:48:50;;;;;;;4.00;2.85;;;4.10;99.90;;;;;;5021547;28;20046;-38
2023/01/16 09:51:21;;;;;;;3.85;2.63;;;4.10;99.90;;;;;;5038737;28;20497;-36
2023/01/16 09:59:54;;;;;;;6.10;2.45;;;4.20;99.90;;;;;;5032080;28;20046;-36
2023/01/16 10:02:32;;;;;;;4.28;2.10;;;4.20;99.90;;;;;;5029165;28;20076;-37
2023/01/16 10:05:00;;;;;;;6.15;2.80;;;4.20;99.90;;;;;;5031791;28;20510;-36
2023/01/16 10:07:48;;;;;;;3.22;2.40;;;4.20;99.90;;;;;;5037707;28;20068;-37
2023/01/16 10:10:34;;;;;;;2.58;1.70;;;4.20;99.90;;;;;;5017603;28;20038;-37
2023/01/16 10:13:19;;;;;;;2.97;1.58;;;4.20;99.90;;;;;;5028834;28;20038;-36
2023/01/16 10:15:49;;;;;;;3.50;1.98;;;4.20;99.90;;;;;;5030034;28;20551;-39
2023/01/16 10:18:41;;;;;;;4.88;2.33;;;4.20;99.90;;;;;;5035187;28;20044;-36
2023/01/16 10:21:27;;;;;;;2.97;2.00;;;4.10;99.90;;;;;;5037820;28;20040;-36
2023/01/16 10:24:34;;;;;;;2.92;2.05;;;4.10;99.90;;;;;;5019267;28;20573;-36
2023/01/16 10:27:53;;;;;;;7.00;2.20;;;4.10;99.90;;;;;;5030444;28;20049;-37
2023/01/16 10:56:25;;;;;;;4.10;2.70;;;4.00;99.90;;;;;;4996990;28;20052;-40
2023/01/16 10:58:53;;;;;;;3.33;2.90;;;4.00;99.90;;;;;;4993703;28;20046;-40
2023/01/16 11:01:22;;;;;;;8.02;3.35;;;4.00;99.90;;;;;;4987296;28;20054;-43
2023/01/16 11:03:52;;;;;;;4.07;3.13;;;4.00;99.90;;;;;;5000277;28;20101;-41
2023/01/16 11:06:19;;;;;;;6.28;3.70;;;4.00;99.90;;;;;;5000838;28;20089;-41
2023/01/16 11:08:48;;;;;;;4.38;3.50;;;4.00;99.90;;;;;;5027103;28;20030;-41
2023/01/16 11:19:50;;;;;;;3.40;2.83;;;4.10;99.90;;;;;;5040867;28;20037;-41
2023/01/16 11:22:27;;;;;;;5.55;3.70;;;4.10;99.90;;;;;;5041148;28;20048;-41
2023/01/16 11:24:59;;;;;;;6.13;3.63;;;4.10;99.90;;;;;;5037634;28;20436;-41
2023/01/16 11:27:28;;;;;;;4.13;3.00;;;4.10;99.90;;;;;;5041770;28;20035;-41
2023/01/16 11:29:57;;;;;;;4.57;2.88;;;4.10;99.90;;;;;;5042257;28;20036;-41
2023/01/16 11:32:27;;;;;;;4.05;3.35;;;4.10;99.90;;;;;;5036167;28;20395;-41
2023/01/16 11:35:20;;;;;;;4.63;3.17;;;4.10;99.90;;;;;;5034067;28;20461;-46
2023/01/16 11:37:53;;;;;;;3.28;2.90;;;4.10;99.90;;;;;;5027090;28;20111;-44
2023/01/16 11:40:26;;;;;;;5.75;3.78;;;4.10;99.90;;;;;;5042098;28;20041;-43
2023/01/16 11:46:02;;;;;;;8.68;4.50;;;4.20;99.90;;;;;;5033186;28;20387;-44
2023/01/16 11:48:48;;;;;;;3.33;2.75;;;4.20;99.90;;;;;;5042652;28;20099;-43
2023/01/16 11:51:17;;;;;;;4.85;3.55;;;4.20;99.90;;;;;;5039345;28;20404;-43
2023/01/16 11:53:46;;;;;;;4.53;3.03;;;4.30;99.90;;;;;;5020946;28;20076;-44
2023/01/16 11:56:38;;;;;;;6.95;3.70;;;4.30;99.90;;;;;;5035555;28;20033;-47
2023/01/16 11:59:28;;;;;;;4.30;3.15;;;4.30;99.90;;;;;;5042917;28;20304;-42
2023/01/16 12:02:24;;;;;;;4.35;3.00;;;4.30;99.90;;;;;;5033918;28;20375;-42
2023/01/16 12:07:57;;;;;;;4.35;3.28;;;4.40;99.90;;;;;;5030361;28;20047;-42
2023/01/16 12:11:04;;;;;;;4.20;3.33;;;4.40;99.90;;;;;;5018954;28;20034;-44
2023/01/16 12:16:59;;;;;;;3.53;3.15;;;4.50;99.90;;;;;;5024649;28;20397;-42
2023/01/16 12:19:41;;;;;;;3.35;2.97;;;4.50;99.90;;;;;;5040838;28;20049;-41
2023/01/16 12:22:45;;;;;;;7.25;5.03;;;4.50;99.90;;;;;;5030304;28;20051;-44
2023/01/16 12:25:26;;;;;;;;;;;4.50;99.90;;;;;;5013897;28;20060;-43
2023/01/16 12:27:56;;;;;;;11.50;5.63;;;4.50;99.90;;;;;;5032587;28;19918;-43
2023/01/16 12:30:29;;;;;;;6.32;4.28;;;4.50;99.90;;;;;;5031565;28;20033;-43
2023/01/16 12:33:09;;;;;;;;;;;4.50;99.90;;;;;;5034366;28;20123;-44
2023/01/16 12:35:49;;;;;;;4.90;4.40;;;4.50;99.90;;;;;;5026191;28;19964;-43
2023/01/16 12:38:19;;;;;;;7.18;4.50;;;4.50;99.90;;;;;;5038603;28;20060;-42
2023/01/16 12:44:21;;;;;;;4.03;3.33;;;4.50;99.90;;;;;;5012677;28;20037;-45
2023/01/16 12:47:17;;;;;;;4.50;3.60;;;4.50;99.90;;;;;;5019056;28;20337;-42
2023/01/16 12:50:07;;;;;;;4.53;4.13;;;4.60;99.90;;;;;;5041769;28;20039;-42
2023/01/16 12:52:48;;;;;;;5.18;3.65;;;4.60;99.90;;;;;;5026918;28;20041;-42
2023/01/16 12:55:37;;;;;;;3.78;3.47;;;4.60;99.90;;;;;;5035004;28;20125;-43
2023/01/16 12:58:15;;;;;;;5.20;3.10;;;4.60;99.90;;;;;;5026977;28;20401;-43
2023/01/16 13:00:58;;;;;;;5.40;4.25;;;4.60;99.90;;;;;;5026723;28;20490;-44
2023/01/16 13:03:44;;;;;;;4.00;3.53;;;4.60;99.90;;;;;;5027625;28;20733;-43
2023/01/16 13:06:18;;;;;;;10.48;8.05;;;4.70;99.90;;;;;;5023707;28;20096;-45
2023/01/16 13:08:59;;;;;;;9.82;6.20;;;4.70;99.90;;;;;;5029432;28;20076;-44
2023/01/16 13:14:22;;;;;;;4.65;3.70;;;4.70;99.90;;;;;;5027817;28;20743;-44
2023/01/16 13:17:19;;;;;;;3.17;2.88;;;4.80;99.90;;;;;;5033133;28;20041;-42
2023/01/16 13:19:46;;;;;;;4.25;3.10;;;4.80;99.90;;;;;;5011749;28;20068;-42
2023/01/16 13:22:28;;;;;;;4.75;3.03;;;4.80;99.90;;;;;;5024878;28;20049;-43
2023/01/16 13:24:56;;;;;;;4.57;3.40;;;4.90;99.90;;;;;;5032419;28;20037;-45
2023/01/16 13:27:41;;;;;;;5.88;3.75;;;4.90;99.90;;;;;;5037844;28;20045;-42
2023/01/16 13:30:23;;;;;;;3.05;2.75;;;4.90;99.90;;;;;;5028414;28;20045;-44
2023/01/16 13:32:52;;;;;;;3.25;3.00;;;4.90;99.90;;;;;;5023818;28;20438;-42
2023/01/16 13:35:42;;;;;;;4.53;2.55;;;5.00;99.90;;;;;;5030317;28;20550;-41
2023/01/16 13:38:38;;;;;;;3.40;2.95;;;5.00;99.90;;;;;;5037146;28;20094;-42
2023/01/16 13:41:17;;;;;;;3.42;2.63;;;5.00;99.90;;;;;;5040604;28;20407;-43
2023/01/16 13:46:53;;;;;;;2.38;2.17;;;5.00;99.90;;;;;;5028570;28;20453;-46
2023/01/16 13:49:24;;;;;;;3.38;2.50;;;5.00;99.90;;;;;;5032015;28;20483;-46
2023/01/16 13:51:52;;;;;;;2.67;2.47;;;5.00;99.90;;;;;;5054497;28;20051;-43
2023/01/16 13:54:22;;;;;;;1.85;1.63;;;5.00;99.90;;;;;;5041574;28;20095;-44
2023/01/16 13:57:10;;;;;;;4.25;1.77;;;5.00;99.90;;;;;;5032600;28;20115;-42
2023/01/16 13:59:42;;;;;;;4.13;3.10;;;4.90;99.90;;;;;;5018051;28;20036;-43
2023/01/16 14:02:36;;;;;;;3.53;2.88;;;4.90;99.90;;;;;;5038615;28;20084;-42
2023/01/16 14:05:18;;;;;;;3.90;2.80;;;4.90;99.90;;;;;;5023671;28;20100;-43
2023/01/16 14:10:44;;;;;;;2.97;2.42;;;5.00;99.90;;;;;;5034648;28;20085;-45
2023/01/16 14:13:22;;;;;;;4.18;2.63;;;5.00;99.90;;;;;;5030590;28;20120;-45
2023/01/16 14:18:59;;;;;;;5.43;2.47;;;5.00;99.90;;;;;;5036176;28;20064;-41
2023/01/16 14:21:43;;;;;;;4.47;2.30;;;5.00;99.90;;;;;;5043779;28;20044;-41
2023/01/16 14:24:20;;;;;;;3.50;2.72;;;5.10;99.90;;;;;;5052191;28;20084;-41
2023/01/16 14:27:03;;;;;;;3.92;2.40;;;5.00;99.90;;;;;;5033845;28;20444;-41
2023/01/16 14:29:38;;;;;;;2.40;2.20;;;5.10;99.90;;;;;;5031902;28;20045;-42
2023/01/16 14:32:13;;;;;;;4.45;2.75;;;5.00;99.90;;;;;;5020501;28;20084;-41
2023/01/16 14:34:46;;;;;;;5.63;2.22;;;5.10;99.90;;;;;;5024383;28;20037;-41
2023/01/16 14:37:25;;;;;;;4.13;2.63;;;5.00;99.90;;;;;;5030962;28;20065;-41
2023/01/16 14:40:01;;;;;;;3.92;2.40;;;5.10;99.90;;;;;;5039160;28;20395;-41
2023/01/16 14:57:23;;;;;;;6.50;2.72;;;5.00;99.90;;;;;;5010586;28;20046;-41
2023/01/16 14:59:55;;;;;;;2.88;2.35;;;5.00;99.90;;;;;;5031390;28;20060;-41
2023/01/16 15:02:30;;;;;;;4.80;3.13;;;5.00;99.90;;;;;;5035288;28;20116;-40
2023/01/16 15:05:20;;;;;;;3.92;2.40;;;5.00;99.90;;;;;;5037110;28;20037;-41
2023/01/16 15:08:19;;;;;;;3.25;2.80;;;5.00;99.90;;;;;;5020045;28;20033;-41
2023/01/16 15:10:45;;;;;;;3.60;2.83;;;5.00;99.90;;;;;;5011843;28;20068;-41
2023/01/16 15:14:25;;;;;;;4.18;3.47;;;4.90;99.90;;;;;;5593780;23;20027;-42
2023/01/16 15:21:57;;;;;;;4.30;3.00;;;4.90;99.90;;;;;;4993444;28;20050;-42
2023/01/16 15:22:19;;;;;;;3.38;3.00;;;4.90;99.90;;;;;;4995585;28;20046;-44
2023/01/16 15:24:53;;;;;;;3.72;3.05;;;4.90;99.90;;;;;;4992267;28;20038;-46
2023/01/16 15:27:26;;;;;;;4.63;2.97;;;4.90;99.90;;;;;;5008649;28;20038;-45
2023/01/16 15:30:02;;;;;;;4.82;4.00;;;4.90;99.90;;;;;;5015902;28;20426;-43